Portada
METAR-TAF:

METAR-TAF

Aeroports :

Aeroport Internacional Maiquetía Simón Bolívar

Caracas, Veneçuela

latitud: 10-36N, longitud: 066-59W, altitud: 43 m

Observació

L'informe es va fer fa 45 minuts, a les 10:00 UTC
Vent calma
Temperatura 27°C
Humitat 79%
Pressió 1011 hPa
Visibilitat 10 km o més
Núvols disperses a una alçada de 1600 ft

METAR: SVMI 141000Z 00000KT 9999 SCT016 27/23 Q1011

Hora: 06:45 (10:45 UTC)

Pronòstic

L'informe es va fer fa 6 hores i 45 minuts, a les 04:00 UTC
Pronòstic vàlid del 14 a les 06 UTC al 15 a les 06 UTC
Vent kt del Nord
Visibilitat 10 km o més
Escasses núvols a una alçada de 1600 ft
Evolucionant progressivament
l' 14 a les 12 UTC al 14 a les 15 UTC
Vent 11 kt del Est
Visibilitat 10 km o més
Escasses núvols a una alçada de 1600 ft

TAF: SVMI 140400Z 1406/1506 00000KT 9999 FEW016 TX32/18Z TN24/07Z BECMG 1412/1415 09011KT 9999 FEW016

Observacions i pronòstics meteorològics de més de 4000 aeroports (METAR i TAF).

Les estacions disponibles són els punts grocs i vermells al mapa.

Posi el ratolí al punt desitjat per veure el nom de l'estació.

Feu clic per veure les observacions i els pronòstics meteorològics.

Per canviar el mapa: feu clic els botons verds amb una creu de color negre per apropar; al botó verd amb un guió per allunyar la imatge; o en les fletxes verdes per a mapes adjacents.


METAR-TAF: